Time;durP1;ratioP1;P1;durP2;ratioP2;P2;SDS_P1;SDS_P2;PMS_P1;PMS_P2;Temp;Humidity;BMP_temperature;BMP_pressure;BME280_temperature;BME280_humidity;BME280_pressure;Samples;Min_cycle;Max_cycle;Signal;HPM_P1;HPM_P2
2022/08/17 00:01:54;;;;;;;;;;;;;;;-144.99;88.55;52113.84;5069548;28;19931;-76
2022/08/17 00:04:21;;;;;;;;;;;;;;;-144.99;88.93;52134.22;5073982;28;19936;-76
2022/08/17 00:06:48;;;;;;;;;;;;;;;-144.99;89.27;52156.63;5068605;28;20003;-76
2022/08/17 00:09:14;;;;;;;;;;;;;;;-144.99;89.43;52154.59;5071385;28;20000;-77
2022/08/17 00:11:43;;;;;;;;;;;;;;;-144.99;89.83;52134.22;5070729;28;19932;-76
2022/08/17 00:14:12;;;;;;;;;;;;;;;-144.99;88.58;52130.13;5068901;28;19931;-76
2022/08/17 00:16:40;;;;;;;;;;;;;;;-144.99;88.48;52150.53;5068149;28;19924;-75
2022/08/17 00:19:08;;;;;;;;;;;;;;;-144.99;88.93;52121.97;5072484;28;20430;-76
2022/08/17 00:21:35;;;;;;;;;;;;;;;-144.99;90.32;52146.44;5071279;28;19925;-76
2022/08/17 00:24:02;;;;;;;;;;;;;;;-144.99;92.07;52146.44;5068080;28;20027;-75
2022/08/17 00:26:29;;;;;;;;;;;;;;;-144.99;92.60;52146.44;5068056;28;19925;-75
2022/08/17 00:28:57;;;;;;;;;;;;;;;-144.99;92.94;52134.22;5059590;28;20551;-76
2022/08/17 00:31:24;;;;;;;;;;;;;;;-144.99;93.18;52132.19;5065896;28;19939;-75
2022/08/17 00:33:50;;;;;;;;;;;;;;;-144.99;93.24;52146.44;5064118;28;20015;-77
2022/08/17 00:36:17;;;;;;;;;;;;;;;-144.99;92.96;52134.22;5077258;28;20415;-75
2022/08/17 00:38:43;;;;;;;;;;;;;;;-144.99;93.13;52136.25;5069268;28;19928;-75
2022/08/17 00:41:12;;;;;;;;;;;;;;;-144.99;92.43;52154.59;5062469;28;19925;-75
2022/08/17 00:43:39;;;;;;;;;;;;;;;-144.99;92.48;52138.28;5060742;28;19939;-75
2022/08/17 00:46:09;;;;;;;;;;;;;;;-144.99;93.28;52126.06;5070778;28;19925;-76
2022/08/17 00:48:36;;;;;;;;;;;;;;;-144.99;91.93;52130.13;5060615;28;19957;-75
2022/08/17 00:51:07;;;;;;;;;;;;;;;-144.99;94.10;52119.94;5066713;28;19932;-75
2022/08/17 00:53:35;;;;;;;;;;;;;;;-144.99;95.04;52134.22;5065818;28;20497;-76
2022/08/17 00:56:04;;;;;;;;;;;;;;;-144.99;93.48;52138.28;5070359;28;19931;-77
2022/08/17 00:58:31;;;;;;;;;;;;;;;-144.99;94.46;52138.28;5069184;28;19936;-76
2022/08/17 01:01:00;;;;;;;;;;;;;;;-144.99;94.78;52132.19;5069894;28;19928;-77
2022/08/17 01:03:29;;;;;;;;;;;;;;;-144.99;95.11;52105.69;5066812;28;19992;-77
2022/08/17 01:05:58;;;;;;;;;;;;;;;-144.99;95.80;52142.38;5069893;28;19932;-73
2022/08/17 01:08:26;;;;;;;;;;;;;;;-144.99;96.16;52138.28;5063749;28;20636;-72
2022/08/17 01:10:54;;;;;;;;;;;;;;;-144.99;96.77;52134.22;5066385;28;19932;-72
2022/08/17 01:13:21;;;;;;;;;;;;;;;-144.99;96.89;52191.28;5065248;28;19931;-73
2022/08/17 01:15:49;;;;;;;;;;;;;;;-144.99;97.24;52146.44;5070122;28;20436;-72
2022/08/17 01:18:16;;;;;;;;;;;;;;;-144.99;97.76;52146.44;5067198;28;19928;-72
2022/08/17 01:20:48;;;;;;;;;;;;;;;-144.99;98.46;52170.91;5066589;28;19928;-74
2022/08/17 01:23:16;;;;;;;;;;;;;;;-144.99;98.81;52146.44;4718507;28;10000166;-74
2022/08/17 01:25:42;;;;;;;;;;;;;;;-144.99;97.01;52179.06;5068109;28;19929;-72
2022/08/17 01:28:09;;;;;;;;;;;;;;;-144.99;98.65;52146.44;5061040;28;20601;-73
2022/08/17 01:30:36;;;;;;;;;;;;;;;-144.99;99.24;52170.91;5065456;28;19928;-75
2022/08/17 01:33:03;;;;;;;;;;;;;;;-144.99;99.66;52166.81;5109262;22;20015;-75
2022/08/17 01:35:29;;;;;;;;;;;;;;;-144.99;99.63;52166.81;5063738;28;19928;-76
2022/08/17 01:37:55;;;;;;;;;;;;;;;-144.99;100.00;52126.06;5085050;28;19924;-77
2022/08/17 01:40:28;;;;;;;;;;;;;;;-144.99;100.00;52170.91;5086818;28;20462;-74
2022/08/17 01:42:56;;;;;;;;;;;;;;;-144.99;100.00;52179.06;5088770;28;19932;-76
2022/08/17 01:45:24;;;;;;;;;;;;;;;-144.99;100.00;52191.28;5077499;28;20015;-77
2022/08/17 01:47:50;;;;;;;;;;;;;;;-144.99;99.90;52136.25;5065947;28;20011;-75
2022/08/17 01:50:18;;;;;;;;;;;;;;;-144.99;99.62;52174.97;5069918;28;19951;-76
2022/08/17 01:52:45;;;;;;;;;;;;;;;-144.99;97.82;52152.56;5070451;28;20024;-77
2022/08/17 01:55:12;;;;;;;;;;;;;;;-144.99;97.88;52134.22;5069375;28;19939;-76
2022/08/17 01:57:40;;;;;;;;;;;;;;;-144.99;98.52;52183.13;5070177;28;19931;-75
2022/08/17 02:00:08;;;;;;;;;;;;;;;-144.99;98.99;52160.72;5069618;28;19925;-76
2022/08/17 02:02:35;;;;;;;;;;;;;;;-144.99;97.93;52168.84;5069649;28;19935;-76
2022/08/17 02:05:01;;;;;;;;;;;;;;;-144.99;97.85;52174.97;5069643;28;19931;-75
2022/08/17 02:07:28;;;;;;;;;;;;;;;-144.99;97.98;52183.13;5067548;28;19928;-76
2022/08/17 02:09:55;;;;;;;;;;;;;;;-144.99;98.06;52170.91;5063464;28;20023;-77
2022/08/17 02:12:21;;;;;;;;;;;;;;;-144.99;98.75;52158.66;5071016;28;19928;-79
2022/08/17 02:14:49;;;;;;;;;;;;;;;-144.99;98.53;52138.28;5090476;28;19970;-77
2022/08/17 02:17:15;;;;;;;;;;;;;;;-144.99;98.79;52136.25;5090895;28;19967;-77
2022/08/17 02:19:42;;;;;;;;;;;;;;;-144.99;96.05;52152.56;5084268;28;19972;-76
2022/08/17 02:22:08;;;;;;;;;;;;;;;-144.99;96.25;52126.06;5070625;28;19963;-76
2022/08/17 02:24:37;;;;;;;;;;;;;;;-144.99;96.82;52170.91;5069641;28;20407;-77
2022/08/17 02:27:04;;;;;;;;;;;;;;;-144.99;99.46;52158.66;5067916;28;19932;-77
2022/08/17 02:29:31;;;;;;;;;;;;;;;-144.99;100.00;52203.50;5068924;28;19924;-76
2022/08/17 02:32:00;;;;;;;;;;;;;;;-144.99;100.00;52138.28;5069200;28;19924;-75
2022/08/17 02:34:27;;;;;;;;;;;;;;;-144.99;100.00;52191.28;5073766;28;20477;-75
2022/08/17 02:36:53;;;;;;;;;;;;;;;-144.99;100.00;52191.28;5074095;28;19973;-76
2022/08/17 02:39:20;;;;;;;;;;;;;;;-144.99;100.00;52187.19;5066657;28;19925;-75
2022/08/17 02:41:47;;;;;;;;;;;;;;;-144.99;100.00;52170.91;5064394;28;20373;-77
2022/08/17 02:44:14;;;;;;;;;;;;;;;-144.99;100.00;52170.91;5069697;28;19928;-75
2022/08/17 02:46:40;;;;;;;;;;;;;;;-144.99;100.00;52225.94;5069284;28;19924;-75
2022/08/17 02:49:08;;;;;;;;;;;;;;;-144.99;100.00;52170.91;5067967;28;19925;-74
2022/08/17 02:51:35;;;;;;;;;;;;;;;-144.99;100.00;52142.38;5068864;28;19929;-75
2022/08/17 02:54:01;;;;;;;;;;;;;;;-144.99;100.00;52187.19;5078949;28;19924;-75
2022/08/17 02:56:27;;;;;;;;;;;;;;;-144.99;100.00;52183.13;5066038;28;20389;-76
2022/08/17 02:58:54;;;;;;;;;;;;;;;-144.99;100.00;52170.91;5069485;28;19924;-75
2022/08/17 03:01:20;;;;;;;;;;;;;;;-144.99;99.55;52128.09;5069124;28;20011;-76
2022/08/17 03:03:46;;;;;;;;;;;;;;;-144.99;98.94;52138.28;5067877;28;20371;-75
2022/08/17 03:06:15;;;;;;;;;;;;;;;-144.99;100.00;52136.25;5067946;28;20402;-77
2022/08/17 03:08:41;;;;;;;;;;;;;;;-144.99;100.00;52134.22;5077335;28;19979;-77
2022/08/17 03:11:08;;;;;;;;;;;;;;;-144.99;100.00;52150.53;5073701;28;19931;-80
2022/08/17 03:13:34;;;;;;;;;;;;;;;-144.99;100.00;52126.06;5074953;28;19928;-79
2022/08/17 03:16:01;;;;;;;;;;;;;;;-144.99;100.00;52142.38;5077907;28;20220;-79
2022/08/17 03:18:27;;;;;;;;;;;;;;;-144.99;100.00;52166.81;5072646;28;20034;-79
2022/08/17 03:20:55;;;;;;;;;;;;;;;-144.99;100.00;52170.91;5075057;28;19929;-79
2022/08/17 03:23:22;;;;;;;;;;;;;;;-144.99;100.00;52177.00;5074799;28;20462;-78
2022/08/17 03:25:49;;;;;;;;;;;;;;;-144.99;100.00;52109.75;5070883;28;19944;-79
2022/08/17 03:28:15;;;;;;;;;;;;;;;-144.99;99.97;52121.97;5069753;28;19924;-78
2022/08/17 03:30:42;;;;;;;;;;;;;;;-144.99;99.71;52158.66;5073562;28;19946;-78
2022/08/17 03:33:09;;;;;;;;;;;;;;;-144.99;100.00;52162.75;5069850;28;19924;-77
2022/08/17 03:35:36;;;;;;;;;;;;;;;-144.99;100.00;52179.06;5070953;28;19928;-77
2022/08/17 03:38:03;;;;;;;;;;;;;;;-144.99;99.88;52156.63;5080025;28;20006;-76
2022/08/17 03:40:31;;;;;;;;;;;;;;;-144.99;99.19;52195.34;5072163;28;19959;-78
2022/08/17 03:43:03;;;;;;;;;;;;;;;-144.99;98.72;52158.66;5068577;28;20024;-78
2022/08/17 03:56:43;;;;;;;;;;;;;;;-144.99;100.00;52179.06;5069162;28;20042;-77
2022/08/17 03:59:11;;;;;;;;;;;;;;;-144.99;100.00;52174.97;5071481;28;19931;-77
2022/08/17 04:01:37;;;;;;;;;;;;;;;-144.99;100.00;52146.44;5069493;28;19928;-75
2022/08/17 04:04:04;;;;;;;;;;;;;;;-144.99;100.00;52187.19;5059584;28;19977;-76
2022/08/17 04:06:30;;;;;;;;;;;;;;;-144.99;100.00;52215.75;5067898;28;20026;-77
2022/08/17 04:08:57;;;;;;;;;;;;;;;-144.99;100.00;52183.13;5067547;28;19936;-77
2022/08/17 04:11:23;;;;;;;;;;;;;;;-144.99;100.00;52209.63;5079770;28;19992;-77
2022/08/17 04:13:51;;;;;;;;;;;;;;;-144.99;100.00;52170.91;5104530;28;19928;-78
2022/08/17 04:16:17;;;;;;;;;;;;;;;-144.99;100.00;52219.81;5097485;28;19965;-77
2022/08/17 04:18:44;;;;;;;;;;;;;;;-144.99;100.00;52170.91;5097373;28;19918;-78
2022/08/17 04:21:10;;;;;;;;;;;;;;;-144.99;100.00;52195.34;5093791;28;19943;-76
2022/08/17 04:23:36;;;;;;;;;;;;;;;-144.99;100.00;52168.84;5085778;28;19924;-79
2022/08/17 04:26:03;;;;;;;;;;;;;;;-144.99;100.00;52166.81;5105052;28;19959;-78
2022/08/17 04:28:29;;;;;;;;;;;;;;;-144.99;100.00;52146.44;5101425;28;19924;-80
2022/08/17 04:30:57;;;;;;;;;;;;;;;-144.99;100.00;52174.97;5099043;28;19913;-79
2022/08/17 04:33:25;;;;;;;;;;;;;;;-144.99;100.00;52170.91;5103678;28;19928;-78
2022/08/17 04:35:52;;;;;;;;;;;;;;;-144.99;100.00;52177.00;5105905;28;19932;-77
2022/08/17 04:38:21;;;;;;;;;;;;;;;-144.99;100.00;52187.19;5094609;28;19939;-77
2022/08/17 04:43:41;;;;;;;;;;;;;;;-144.99;100.00;52162.75;5038476;28;20345;-78
2022/08/17 04:46:10;;;;;;;;;;;;;;;-144.99;100.00;52174.97;5087084;28;20015;-77
2022/08/17 04:48:38;;;;;;;;;;;;;;;-144.99;100.00;52187.19;5072881;28;20430;-77
2022/08/17 04:51:06;;;;;;;;;;;;;;;-144.99;100.00;52146.44;5068511;28;19929;-79
2022/08/17 04:53:32;;;;;;;;;;;;;;;-144.99;100.00;52152.56;5072546;28;19924;-75
2022/08/17 04:55:59;;;;;;;;;;;;;;;-144.99;100.00;52191.28;5080076;28;20020;-74
2022/08/17 04:58:25;;;;;;;;;;;;;;;-144.99;100.00;52168.84;5081516;28;19934;-78
2022/08/17 05:00:51;;;;;;;;;;;;;;;-144.99;100.00;52191.28;5073330;28;20409;-74
2022/08/17 05:03:19;;;;;;;;;;;;;;;-144.99;100.00;52154.59;5074168;28;19925;-77
2022/08/17 05:05:48;;;;;;;;;;;;;;;-144.99;100.00;52158.66;5072187;28;19930;-79
2022/08/17 05:08:15;;;;;;;;;;;;;;;-144.99;100.00;52166.81;5072076;28;19936;-79
2022/08/17 05:10:41;;;;;;;;;;;;;;;-144.99;100.00;52179.06;5068984;28;20011;-78
2022/08/17 05:13:09;;;;;;;;;;;;;;;-144.99;100.00;52158.66;5071298;28;20321;-77
2022/08/17 05:15:37;;;;;;;;;;;;;;;-144.99;100.00;52138.28;5071845;28;19925;-80
2022/08/17 05:18:04;;;;;;;;;;;;;;;-144.99;100.00;52138.28;5071728;28;20382;-81
2022/08/17 05:20:32;;;;;;;;;;;;;;;-144.99;100.00;52154.59;5071696;28;19986;-81
2022/08/17 05:23:03;;;;;;;;;;;;;;;-144.99;100.00;52138.28;5074790;28;19924;-81
2022/08/17 05:25:32;;;;;;;;;;;;;;;-144.99;100.00;52170.91;5075061;28;19925;-81
2022/08/17 05:27:58;;;;;;;;;;;;;;;-144.99;99.83;52146.44;5078143;28;19943;-82
2022/08/17 05:30:26;;;;;;;;;;;;;;;-144.99;99.35;52109.75;5074159;28;20114;-81
2022/08/17 05:32:53;;;;;;;;;;;;;;;-144.99;99.08;52146.44;5074887;28;19935;-79
2022/08/17 05:35:20;;;;;;;;;;;;;;;-144.99;98.49;52183.13;5086959;28;19924;-81
2022/08/17 05:37:47;;;;;;;;;;;;;;;-144.99;97.93;52162.75;5073293;28;20015;-80
2022/08/17 05:40:14;;;;;;;;;;;;;;;-144.99;97.74;52101.59;5077397;28;19982;-80
2022/08/17 05:42:41;;;;;;;;;;;;;;;-144.99;97.59;52162.75;5073919;28;19992;-80
2022/08/17 05:45:08;;;;;;;;;;;;;;;-144.99;97.58;52134.22;5073959;28;19925;-77
2022/08/17 05:47:34;;;;;;;;;;;;;;;-144.99;97.34;52146.44;5070200;28;20023;-78
2022/08/17 05:50:01;;;;;;;;;;;;;;;-144.99;96.95;52142.38;5068986;28;20564;-75
2022/08/17 05:52:33;;;;;;;;;;;;;;;-144.99;96.73;52138.28;5072565;28;19970;-76
2022/08/17 05:55:09;;;;;;;;;;;;;;;-144.99;96.27;52130.13;5081062;28;19959;-77
2022/08/17 05:57:39;;;;;;;;;;;;;;;-144.99;95.70;52152.56;5070541;28;19939;-76
2022/08/17 06:00:09;;;;;;;;;;;;;;;-144.99;95.21;52117.91;5068875;28;20072;-76
2022/08/17 06:02:41;;;;;;;;;;;;;;;-144.99;95.07;52117.91;5070351;28;19928;-74
2022/08/17 06:05:17;;;;;;;;;;;;;;;-144.99;93.96;52121.97;5069903;28;20400;-76
2022/08/17 06:07:48;;;;;;;;;;;;;;;-144.99;93.31;52162.75;5070163;28;20016;-78
2022/08/17 06:10:20;;;;;;;;;;;;;;;-144.99;91.92;52081.22;5064377;28;20038;-77
2022/08/17 06:12:54;;;;;;;;;;;;;;;-144.99;90.79;52134.22;5070956;28;19928;-76
2022/08/17 06:15:26;;;;;;;;;;;;;;;-144.99;89.52;52113.84;5071091;28;20007;-77
2022/08/17 06:17:55;;;;;;;;;;;;;;;-144.99;89.42;52105.69;5092735;28;19963;-79
2022/08/17 06:20:22;;;;;;;;;;;;;;;-144.99;88.76;52128.09;5093236;28;19921;-78
2022/08/17 06:22:50;;;;;;;;;;;;;;;-144.99;88.00;52109.75;5080296;28;20011;-79
2022/08/17 06:25:23;;;;;;;;;;;;;;;-144.99;87.47;52130.13;5078409;28;19939;-81
2022/08/17 06:27:51;;;;;;;;;;;;;;;-144.99;86.65;52126.06;5077282;28;19935;-81
2022/08/17 06:30:19;;;;;;;;;;;;;;;-144.99;86.52;52109.75;5075835;28;19924;-81
2022/08/17 06:32:47;;;;;;;;;;;;;;;-144.99;85.96;52119.94;5074904;28;20482;-80
2022/08/17 06:35:15;;;;;;;;;;;;;;;-144.99;85.10;52101.59;5083103;28;19928;-81
2022/08/17 06:37:50;;;;;;;;;;;;;;;-144.99;84.61;52121.97;5087543;28;20359;-74
2022/08/17 06:40:29;;;;;;;;;;;;;;;-144.99;84.20;52105.69;5067295;28;19929;-74
2022/08/17 06:43:02;;;;;;;;;;;;;;;-144.99;83.75;52138.28;5063407;28;20493;-79
2022/08/17 06:45:30;;;;;;;;;;;;;;;-144.99;83.06;52101.59;5072548;28;19966;-79
2022/08/17 06:48:02;;;;;;;;;;;;;;;-144.99;81.69;52095.50;5075392;28;19928;-80
2022/08/17 06:50:34;;;;;;;;;;;;;;;-144.99;80.04;52134.22;5073346;28;19924;-79
2022/08/17 06:53:05;;;;;;;;;;;;;;;-144.99;80.02;52095.50;5072800;28;20016;-79
2022/08/17 06:55:42;;;;;;;;;;;;;;;-144.99;79.23;52099.56;5073835;28;20387;-78
2022/08/17 06:58:10;;;;;;;;;;;;;;;-144.99;78.98;52093.44;5076072;28;19935;-79
2022/08/17 07:00:40;;;;;;;;;;;;;;;-144.99;78.33;52085.31;5085673;28;19931;-81
2022/08/17 07:03:12;;;;;;;;;;;;;;;-144.99;76.54;52081.22;5086461;28;19928;-80
2022/08/17 07:05:42;;;;;;;;;;;;;;;-144.99;75.77;52048.63;5077043;28;20012;-81
2022/08/17 07:08:13;;;;;;;;;;;;;;;-144.99;75.31;52117.91;5083465;28;19966;-81
2022/08/17 07:10:44;;;;;;;;;;;;;;;-144.99;74.02;52064.91;5082611;28;20294;-81
2022/08/17 07:13:24;;;;;;;;;;;;;;;-144.99;73.43;52077.16;5080648;28;19925;-82
2022/08/17 07:15:53;;;;;;;;;;;;;;;-144.99;73.02;52093.44;5074312;28;20556;-82
2022/08/17 07:18:19;;;;;;;;;;;;;;;-144.99;72.20;52060.84;5075546;28;19924;-80
2022/08/17 07:20:49;;;;;;;;;;;;;;;-144.99;71.40;52062.88;5067152;28;20378;-73
2022/08/17 07:23:19;;;;;;;;;;;;;;;-144.99;71.11;52073.06;5068457;28;19990;-73
2022/08/17 07:25:47;;;;;;;;;;;;;;;-144.99;69.62;52052.69;5068374;28;20027;-71
2022/08/17 07:28:21;;;;;;;;;;;;;;;-144.99;68.21;52077.16;5067693;28;19991;-71
2022/08/17 07:30:49;;;;;;;;;;;;;;;-144.99;68.04;52056.78;5063835;28;19932;-72
2022/08/17 07:33:18;;;;;;;;;;;;;;;-144.99;67.02;52030.28;5068057;28;19925;-72
2022/08/17 07:35:47;;;;;;;;;;;;;;;-144.99;65.41;52044.53;5074905;28;19978;-72
2022/08/17 07:38:14;;;;;;;;;;;;;;;-144.99;64.56;52028.22;5098544;22;19925;-75
2022/08/17 07:40:41;;;;;;;;;;;;;;;-144.99;63.46;52032.31;5086510;28;19931;-75
2022/08/17 07:43:14;;;;;;;;;;;;;;;-144.99;62.45;52007.84;5087942;28;19934;-76
2022/08/17 07:48:36;;;;;;;;;;;;;;;-144.99;59.09;51999.69;5080867;28;19935;-76
2022/08/17 07:51:13;;;;;;;;;;;;;;;-144.99;59.81;52048.63;5093728;28;19958;-73
2022/08/17 07:53:40;;;;;;;;;;;;;;;-144.99;59.85;52044.53;5094800;28;20391;-74
2022/08/17 07:56:07;;;;;;;;;;;;;;;-144.99;60.08;52009.91;5096914;28;19931;-73
2022/08/17 07:58:35;;;;;;;;;;;;;;;-144.99;59.68;52040.47;5097081;28;19924;-74
2022/08/17 08:01:06;;;;;;;;;;;;;;;-144.99;59.53;52044.53;5095916;28;19948;-77
2022/08/17 08:03:33;;;;;;;;;;;;;;;-144.99;59.71;52036.38;5094124;28;19924;-74
2022/08/17 08:06:01;;;;;;;;;;;;;;;-144.99;59.95;52007.84;5094382;28;19978;-74
2022/08/17 08:08:29;;;;;;;;;;;;;;;-144.99;60.29;52020.09;5092616;28;20363;-74
2022/08/17 08:11:01;;;;;;;;;;;;;;;-144.99;59.02;52032.31;5079500;28;20374;-73
2022/08/17 08:13:31;;;;;;;;;;;;;;;-144.99;58.25;52042.50;5086534;28;19935;-75
2022/08/17 08:16:13;;;;;;;;;;;;;;;-144.99;57.76;51969.13;5089210;28;19931;-74
2022/08/17 08:18:42;;;;;;;;;;;;;;;-144.99;57.31;51995.63;5083350;28;19924;-73
2022/08/17 08:21:11;;;;;;;;;;;;;;;-144.99;56.59;51995.63;5085967;28;19936;-72
2022/08/17 08:23:41;;;;;;;;;;;;;;;-144.99;56.46;51983.41;5087140;28;20448;-72
2022/08/17 08:26:13;;;;;;;;;;;;;;;-144.99;55.75;51999.69;5086492;28;19924;-73
2022/08/17 08:28:43;;;;;;;;;;;;;;;-144.99;54.00;52020.09;5091494;28;20463;-75
2022/08/17 08:31:17;;;;;;;;;;;;;;;-144.99;54.10;51942.63;5093462;28;19924;-73
2022/08/17 08:33:50;;;;;;;;;;;;;;;-144.99;54.13;52003.78;5092247;28;19946;-73
2022/08/17 08:36:23;;;;;;;;;;;;;;;-144.99;53.93;51995.63;5093301;28;19927;-75
2022/08/17 08:38:53;;;;;;;;;;;;;;;-144.99;53.24;51979.31;5085782;28;19939;-74
2022/08/17 08:41:30;;;;;;;;;;;;;;;-144.99;52.64;51967.09;5091725;28;20475;-74
2022/08/17 08:44:04;;;;;;;;;;;;;;;-144.99;52.00;51983.41;5081063;28;19978;-74
2022/08/17 08:46:36;;;;;;;;;;;;;;;-144.99;52.03;52024.16;5090878;28;19935;-73
2022/08/17 08:49:11;;;;;;;;;;;;;;;-144.99;51.34;52042.50;5091206;28;19939;-73
2022/08/17 08:51:45;;;;;;;;;;;;;;;-144.99;52.25;52036.38;5084795;28;19925;-74
2022/08/17 08:54:14;;;;;;;;;;;;;;;-144.99;51.90;51995.63;5077913;28;19924;-74
2022/08/17 08:56:44;;;;;;;;;;;;;;;-144.99;51.77;51999.69;5079677;28;19947;-73
2022/08/17 08:59:19;;;;;;;;;;;;;;;-144.99;51.33;51997.66;5087469;28;19930;-73
2022/08/17 09:01:55;;;;;;;;;;;;;;;-144.99;50.80;51942.63;5089670;28;19964;-73
2022/08/17 09:04:34;;;;;;;;;;;;;;;-144.99;50.20;51967.09;5089849;28;19928;-73
2022/08/17 09:07:06;;;;;;;;;;;;;;;-144.99;48.29;51967.09;5088965;28;20014;-72
2022/08/17 09:09:39;;;;;;;;;;;;;;;-144.99;49.64;51971.16;5084729;28;19935;-72
2022/08/17 09:12:12;;;;;;;;;;;;;;;-144.99;50.11;51969.13;5089070;28;19928;-73
2022/08/17 09:14:43;;;;;;;;;;;;;;;-144.99;49.43;51971.16;5083744;28;19997;-73
2022/08/17 09:17:13;;;;;;;;;;;;;;;-144.99;48.73;51971.16;5083231;28;19924;-74
2022/08/17 09:19:42;;;;;;;;;;;;;;;-144.99;47.63;51938.56;5087763;28;19930;-73
2022/08/17 09:22:16;;;;;;;;;;;;;;;-144.99;47.13;51983.41;5087045;28;20011;-73
2022/08/17 09:24:44;;;;;;;;;;;;;;;-144.99;45.79;51946.72;5085348;28;19931;-74
2022/08/17 09:27:14;;;;;;;;;;;;;;;-144.99;45.84;51942.63;5091429;28;19930;-74
2022/08/17 09:29:43;;;;;;;;;;;;;;;-144.99;46.13;51926.34;5090177;28;19931;-74
2022/08/17 09:32:16;;;;;;;;;;;;;;;-144.99;44.79;51954.88;5091415;28;20059;-73
2022/08/17 09:34:47;;;;;;;;;;;;;;;-144.99;45.59;51977.28;5090207;28;19928;-73
2022/08/17 09:37:18;;;;;;;;;;;;;;;-144.99;45.61;51967.09;5088137;28;19988;-73
2022/08/17 09:39:50;;;;;;;;;;;;;;;-144.99;45.55;51960.97;5091794;28;20482;-74
2022/08/17 09:42:21;;;;;;;;;;;;;;;-144.99;44.53;51946.72;5091460;28;19932;-74
2022/08/17 09:44:51;;;;;;;;;;;;;;;-144.99;44.37;51942.63;5090759;28;20006;-74
2022/08/17 09:47:27;;;;;;;;;;;;;;;-144.99;43.17;51932.44;5090340;28;20395;-75
2022/08/17 09:49:55;;;;;;;;;;;;;;;-144.99;43.31;51934.50;5079409;28;19969;-74
2022/08/17 09:52:23;;;;;;;;;;;;;;;-144.99;43.12;51922.25;5091133;28;19938;-74
2022/08/17 09:54:51;;;;;;;;;;;;;;;-144.99;41.98;51885.56;5091953;28;19928;-76
2022/08/17 09:57:25;;;;;;;;;;;;;;;-144.99;41.58;51910.03;5087470;28;19925;-76
2022/08/17 10:00:06;;;;;;;;;;;;;;;-144.99;41.40;51850.94;5086413;28;19931;-76
2022/08/17 10:02:52;;;;;;;;;;;;;;;-144.99;40.19;51893.72;5085852;28;19932;-76
2022/08/17 10:05:22;;;;;;;;;;;;;;;-144.99;39.83;51897.81;5085950;28;20006;-77
2022/08/17 10:07:54;;;;;;;;;;;;;;;-144.99;39.65;51848.91;5088346;28;19963;-78
2022/08/17 10:10:29;;;;;;;;;;;;;;;-144.99;38.71;51863.16;5087959;28;19979;-79
2022/08/17 10:12:59;;;;;;;;;;;;;;;-144.99;38.51;51877.44;5081799;28;19932;-77
2022/08/17 10:15:37;;;;;;;;;;;;;;;-144.99;37.63;51877.44;5087962;28;19931;-78
2022/08/17 10:18:15;;;;;;;;;;;;;;;-144.99;38.55;51928.38;5091121;28;20299;-77
2022/08/17 10:20:47;;;;;;;;;;;;;;;-144.99;39.05;51924.28;5090331;28;20486;-78
2022/08/17 10:26:15;;;;;;;;;;;;;;;-144.99;39.28;51873.34;5085992;28;19935;-78
2022/08/17 10:28:46;;;;;;;;;;;;;;;-144.99;38.02;51885.56;5088364;28;19924;-77
2022/08/17 10:31:20;;;;;;;;;;;;;;;-144.99;37.98;51861.13;5090854;28;19944;-78
2022/08/17 10:33:52;;;;;;;;;;;;;;;-144.99;37.73;51832.59;5088729;28;19924;-78
2022/08/17 10:36:26;;;;;;;;;;;;;;;-144.99;37.75;51885.56;5091387;28;19968;-77
2022/08/17 10:39:01;;;;;;;;;;;;;;;-144.99;37.86;51861.13;5092258;28;19936;-77
2022/08/17 10:41:30;;;;;;;;;;;;;;;-144.99;37.43;51836.66;5090035;28;19963;-77
2022/08/17 10:44:01;;;;;;;;;;;;;;;-144.99;37.32;51865.19;5091499;28;20010;-78
2022/08/17 10:46:35;;;;;;;;;;;;;;;-144.99;37.72;51857.03;5085140;28;19928;-77
2022/08/17 10:49:13;;;;;;;;;;;;;;;-144.99;37.80;51910.03;5088907;28;20432;-77
2022/08/17 10:51:41;;;;;;;;;;;;;;;-144.99;38.50;51848.91;5087388;28;19959;-78
2022/08/17 10:54:29;;;;;;;;;;;;;;;-144.99;38.99;51924.28;5087456;28;20547;-78
2022/08/17 10:56:56;;;;;;;;;;;;;;;-144.99;38.94;51950.78;5092367;28;19924;-76
2022/08/17 10:59:41;;;;;;;;;;;;;;;-144.99;39.25;51956.91;5090126;28;20437;-76
2022/08/17 11:02:14;;;;;;;;;;;;;;;-144.99;39.68;51954.88;5087498;28;19983;-78
2022/08/17 11:04:55;;;;;;;;;;;;;;;-144.99;39.64;51877.44;5091415;28;19953;-77
2022/08/17 11:07:31;;;;;;;;;;;;;;;-144.99;38.68;51848.91;5081261;28;19932;-77
2022/08/17 11:10:17;;;;;;;;;;;;;;;-144.99;38.97;51865.19;5084432;28;19959;-78
2022/08/17 11:12:50;;;;;;;;;;;;;;;-144.99;39.19;51958.94;5087974;28;19928;-77
2022/08/17 11:15:37;;;;;;;;;;;;;;;-144.99;40.00;51905.97;5090624;28;19928;-77
2022/08/17 11:18:09;;;;;;;;;;;;;;;-144.99;39.94;51867.22;5093298;28;19924;-77
2022/08/17 11:20:54;;;;;;;;;;;;;;;-144.99;39.88;51934.50;5103042;28;19934;-77
2022/08/17 11:23:30;;;;;;;;;;;;;;;-144.99;39.23;51804.06;5105535;28;20537;-77
2022/08/17 11:25:58;;;;;;;;;;;;;;;-144.99;38.30;51812.22;5106286;28;19924;-77
2022/08/17 11:28:26;;;;;;;;;;;;;;;-144.99;37.52;51793.88;5103234;28;19924;-77
2022/08/17 11:30:54;;;;;;;;;;;;;;;-144.99;37.29;51871.31;5100204;28;19924;-76
2022/08/17 11:33:39;;;;;;;;;;;;;;;-144.99;37.47;51824.44;5101442;28;20148;-77
2022/08/17 11:36:18;;;;;;;;;;;;;;;-144.99;36.98;51824.44;5104799;28;20004;-77
2022/08/17 11:38:52;;;;;;;;;;;;;;;-144.99;37.23;51861.13;5105373;28;19920;-77
2022/08/17 11:41:26;;;;;;;;;;;;;;;-144.99;37.32;51885.56;5104313;28;20155;-76
2022/08/17 11:44:02;;;;;;;;;;;;;;;-144.99;37.48;51889.66;5104503;28;19924;-77
2022/08/17 11:52:13;;;;;;;;;;;;;;;-144.99;37.75;51924.28;5089743;28;19934;-76
2022/08/17 11:54:45;;;;;;;;;;;;;;;-144.99;38.35;51932.44;5090643;28;20018;-76
2022/08/17 11:57:30;;;;;;;;;;;;;;;-144.99;38.81;51926.34;5086965;28;19939;-77
2022/08/17 11:59:58;;;;;;;;;;;;;;;-144.99;39.10;51952.81;5087012;28;20015;-77
2022/08/17 12:02:30;;;;;;;;;;;;;;;-144.99;38.56;51952.81;5085610;28;19926;-77
2022/08/17 12:05:02;;;;;;;;;;;;;;;-144.99;38.68;51922.25;5086905;28;19932;-76
2022/08/17 12:07:31;;;;;;;;;;;;;;;-144.99;39.01;51950.78;5083210;28;19928;-82
2022/08/17 12:10:00;;;;;;;;;;;;;;;-144.99;38.82;51944.69;5092227;28;20438;-84
2022/08/17 12:12:30;;;;;;;;;;;;;;;-144.99;39.28;51934.50;5086149;28;19973;-80
2022/08/17 12:14:57;;;;;;;;;;;;;;;-144.99;39.87;51954.88;5091805;28;19931;-80
2022/08/17 12:17:25;;;;;;;;;;;;;;;-144.99;39.80;51954.88;5090160;28;20143;-81
2022/08/17 12:19:52;;;;;;;;;;;;;;;-144.99;39.85;51975.25;5081956;28;19935;-81
2022/08/17 12:22:22;;;;;;;;;;;;;;;-144.99;39.65;51975.25;5095650;28;19928;-80
2022/08/17 12:24:53;;;;;;;;;;;;;;;-144.99;40.07;51971.16;5096778;28;19978;-80
2022/08/17 12:27:24;;;;;;;;;;;;;;;-144.99;39.96;51971.16;5094449;28;19928;-80
2022/08/17 12:29:51;;;;;;;;;;;;;;;-144.99;39.63;51958.94;5096222;28;19932;-80
2022/08/17 12:32:19;;;;;;;;;;;;;;;-144.99;39.74;51971.16;5090433;28;20029;-81
2022/08/17 12:34:46;;;;;;;;;;;;;;;-144.99;40.21;51956.91;5084002;28;20482;-80
2022/08/17 12:37:15;;;;;;;;;;;;;;;-144.99;40.05;51958.94;5095531;28;19972;-81
2022/08/17 12:39:50;;;;;;;;;;;;;;;-144.99;39.89;51963.03;5096689;28;20352;-80
2022/08/17 12:42:22;;;;;;;;;;;;;;;-144.99;39.59;51967.09;5092791;28;19999;-80
2022/08/17 12:44:49;;;;;;;;;;;;;;;-144.99;39.52;51999.69;5093580;28;19933;-80
2022/08/17 12:47:17;;;;;;;;;;;;;;;-144.99;39.55;51954.88;5091690;28;19962;-80
2022/08/17 12:49:45;;;;;;;;;;;;;;;-144.99;39.44;51995.63;5092756;28;20026;-79
2022/08/17 12:52:13;;;;;;;;;;;;;;;-144.99;39.39;51954.88;5087512;28;19925;-80
2022/08/17 12:54:51;;;;;;;;;;;;;;;-144.99;38.79;51971.16;5089837;28;20310;-80
2022/08/17 12:57:20;;;;;;;;;;;;;;;-144.99;38.66;51942.63;5087081;28;19936;-80
2022/08/17 12:59:54;;;;;;;;;;;;;;;-144.99;38.75;51934.50;5092500;28;19985;-81
2022/08/17 13:02:27;;;;;;;;;;;;;;;-144.99;38.92;51950.78;5097567;28;19955;-81
2022/08/17 13:04:54;;;;;;;;;;;;;;;-144.99;38.97;51969.13;5093619;28;20011;-79